sensor_id;sensor_type;location;lat;lon;timestamp;pressure;altitude;pressure_sealevel;temperature;humidity
9796;BME280;4937;42.680;27.704;2024-03-06T00:02:23;101336.03;;;8.55;65.55
9796;BME280;4937;42.680;27.704;2024-03-06T00:04:48;101332.50;;;8.54;65.75
9796;BME280;4937;42.680;27.704;2024-03-06T00:07:14;101321.88;;;8.56;65.78
9796;BME280;4937;42.680;27.704;2024-03-06T00:09:40;101327.00;;;8.54;65.05
9796;BME280;4937;42.680;27.704;2024-03-06T00:12:05;101323.81;;;8.59;64.78
9796;BME280;4937;42.680;27.704;2024-03-06T00:14:31;101323.50;;;8.54;65.32
9796;BME280;4937;42.680;27.704;2024-03-06T00:16:57;101326.25;;;8.50;66.00
9796;BME280;4937;42.680;27.704;2024-03-06T00:19:23;101333.28;;;8.55;65.06
9796;BME280;4937;42.680;27.704;2024-03-06T00:21:48;101324.72;;;8.49;65.10
9796;BME280;4937;42.680;27.704;2024-03-06T00:24:15;101335.66;;;8.53;64.78
9796;BME280;4937;42.680;27.704;2024-03-06T00:26:44;101335.66;;;8.53;65.16
9796;BME280;4937;42.680;27.704;2024-03-06T00:29:10;101339.97;;;8.54;65.75
9796;BME280;4937;42.680;27.704;2024-03-06T00:31:37;101338.41;;;8.53;65.38
9796;BME280;4937;42.680;27.704;2024-03-06T00:34:07;101341.13;;;8.56;65.24
9796;BME280;4937;42.680;27.704;2024-03-06T00:36:33;101336.41;;;8.57;64.84
9796;BME280;4937;42.680;27.704;2024-03-06T00:38:58;101338.00;;;8.54;65.62
9796;BME280;4937;42.680;27.704;2024-03-06T00:41:24;101335.28;;;8.51;65.33
9796;BME280;4937;42.680;27.704;2024-03-06T00:43:50;101333.00;;;8.46;66.42
9796;BME280;4937;42.680;27.704;2024-03-06T00:46:15;101333.47;;;8.37;65.51
9796;BME280;4937;42.680;27.704;2024-03-06T00:48:41;101336.22;;;8.34;65.86
9796;BME280;4937;42.680;27.704;2024-03-06T00:51:07;101336.72;;;8.25;66.01
9796;BME280;4937;42.680;27.704;2024-03-06T00:53:35;101338.28;;;8.26;66.26
9796;BME280;4937;42.680;27.704;2024-03-06T00:56:01;101347.84;;;8.08;66.73
9796;BME280;4937;42.680;27.704;2024-03-06T00:58:27;101346.56;;;8.16;66.59
9796;BME280;4937;42.680;27.704;2024-03-06T01:00:52;101350.09;;;8.20;66.86
9796;BME280;4937;42.680;27.704;2024-03-06T01:03:18;101361.06;;;8.20;65.99
9796;BME280;4937;42.680;27.704;2024-03-06T01:05:43;101352.44;;;8.18;66.15
9796;BME280;4937;42.680;27.704;2024-03-06T01:08:09;101361.09;;;8.16;66.58
9796;BME280;4937;42.680;27.704;2024-03-06T01:10:34;101361.56;;;8.08;66.55
9796;BME280;4937;42.680;27.704;2024-03-06T01:13:00;101367.53;;;7.95;67.61
9796;BME280;4937;42.680;27.704;2024-03-06T01:15:26;101366.00;;;7.94;67.80
9796;BME280;4937;42.680;27.704;2024-03-06T01:17:52;101362.03;;;7.95;67.73
9796;BME280;4937;42.680;27.704;2024-03-06T01:20:17;101355.06;;;7.87;67.24
9796;BME280;4937;42.680;27.704;2024-03-06T01:22:43;101360.91;;;7.89;68.00
9796;BME280;4937;42.680;27.704;2024-03-06T01:25:11;101362.91;;;7.89;67.40
9796;BME280;4937;42.680;27.704;2024-03-06T01:27:36;101366.88;;;7.81;67.94
9796;BME280;4937;42.680;27.704;2024-03-06T01:30:02;101371.94;;;7.82;68.10
9796;BME280;4937;42.680;27.704;2024-03-06T01:32:29;101361.34;;;7.84;67.73
9796;BME280;4937;42.680;27.704;2024-03-06T01:34:55;101365.69;;;7.82;67.92
9796;BME280;4937;42.680;27.704;2024-03-06T01:37:20;101369.19;;;7.82;67.71
9796;BME280;4937;42.680;27.704;2024-03-06T01:39:46;101362.94;;;7.82;68.22
9796;BME280;4937;42.680;27.704;2024-03-06T01:42:11;101378.22;;;7.83;68.12
9796;BME280;4937;42.680;27.704;2024-03-06T01:44:37;101371.53;;;7.84;68.02
9796;BME280;4937;42.680;27.704;2024-03-06T01:47:03;101386.81;;;7.88;67.42
9796;BME280;4937;42.680;27.704;2024-03-06T01:49:28;101383.25;;;7.91;67.43
9796;BME280;4937;42.680;27.704;2024-03-06T01:51:56;101389.91;;;7.94;67.33
9796;BME280;4937;42.680;27.704;2024-03-06T01:54:22;101392.22;;;7.99;67.60
9796;BME280;4937;42.680;27.704;2024-03-06T01:56:49;101400.06;;;8.00;67.87
9796;BME280;4937;42.680;27.704;2024-03-06T01:59:17;101402.00;;;8.03;67.23
9796;BME280;4937;42.680;27.704;2024-03-06T02:01:45;101398.09;;;8.01;66.95
9796;BME280;4937;42.680;27.704;2024-03-06T02:04:12;101399.75;;;7.88;67.22
9796;BME280;4937;42.680;27.704;2024-03-06T02:06:41;101403.66;;;7.90;67.61
9796;BME280;4937;42.680;27.704;2024-03-06T02:09:07;101415.44;;;7.91;67.75
9796;BME280;4937;42.680;27.704;2024-03-06T02:11:35;101413.44;;;7.91;67.91
9796;BME280;4937;42.680;27.704;2024-03-06T02:14:02;101415.03;;;7.92;67.78
9796;BME280;4937;42.680;27.704;2024-03-06T02:16:28;101416.97;;;7.95;67.48
9796;BME280;4937;42.680;27.704;2024-03-06T02:18:56;101418.16;;;7.94;67.87
9796;BME280;4937;42.680;27.704;2024-03-06T02:21:24;101413.88;;;7.86;68.07
9796;BME280;4937;42.680;27.704;2024-03-06T02:23:50;101412.31;;;7.89;68.12
9796;BME280;4937;42.680;27.704;2024-03-06T02:26:17;101411.53;;;7.88;67.80
9796;BME280;4937;42.680;27.704;2024-03-06T02:28:47;101415.06;;;7.89;67.90
9796;BME280;4937;42.680;27.704;2024-03-06T02:31:13;101419.75;;;7.88;67.87
9796;BME280;4937;42.680;27.704;2024-03-06T02:33:39;101408.41;;;7.86;67.72
9796;BME280;4937;42.680;27.704;2024-03-06T02:36:05;101414.75;;;7.73;68.35
9796;BME280;4937;42.680;27.704;2024-03-06T02:38:31;101416.34;;;7.70;68.59
9796;BME280;4937;42.680;27.704;2024-03-06T02:40:56;101420.25;;;7.69;68.61
9796;BME280;4937;42.680;27.704;2024-03-06T02:43:22;101425.78;;;7.62;69.02
9796;BME280;4937;42.680;27.704;2024-03-06T02:45:47;101420.31;;;7.62;69.49
9796;BME280;4937;42.680;27.704;2024-03-06T02:48:13;101424.28;;;7.51;69.59
9796;BME280;4937;42.680;27.704;2024-03-06T02:50:38;101428.59;;;7.52;69.41
9796;BME280;4937;42.680;27.704;2024-03-06T02:53:04;101440.00;;;7.43;69.53
9796;BME280;4937;42.680;27.704;2024-03-06T02:55:29;101438.06;;;7.37;69.51
9796;BME280;4937;42.680;27.704;2024-03-06T02:57:55;101442.41;;;7.27;71.32
9796;BME280;4937;42.680;27.704;2024-03-06T03:00:20;101438.13;;;7.23;71.07
9796;BME280;4937;42.680;27.704;2024-03-06T03:02:47;101442.47;;;7.10;71.20
9796;BME280;4937;42.680;27.704;2024-03-06T03:05:12;101445.22;;;7.10;71.03
9796;BME280;4937;42.680;27.704;2024-03-06T03:07:38;101445.25;;;7.03;71.38
9796;BME280;4937;42.680;27.704;2024-03-06T03:10:04;101449.56;;;6.96;71.47
9796;BME280;4937;42.680;27.704;2024-03-06T03:12:30;101459.75;;;6.92;71.24
9796;BME280;4937;42.680;27.704;2024-03-06T03:14:55;101458.97;;;6.88;71.63
9796;BME280;4937;42.680;27.704;2024-03-06T03:17:21;101457.03;;;6.82;71.56
9796;BME280;4937;42.680;27.704;2024-03-06T03:19:46;101468.38;;;6.66;72.62
9796;BME280;4937;42.680;27.704;2024-03-06T03:22:12;101453.53;;;6.46;72.79
9796;BME280;4937;42.680;27.704;2024-03-06T03:24:38;101463.28;;;6.44;73.31
9796;BME280;4937;42.680;27.704;2024-03-06T03:27:04;101462.91;;;6.49;73.62
9796;BME280;4937;42.680;27.704;2024-03-06T03:29:29;101463.28;;;6.44;73.50
9796;BME280;4937;42.680;27.704;2024-03-06T03:31:55;101461.75;;;6.36;73.92
9796;BME280;4937;42.680;27.704;2024-03-06T03:34:22;101470.75;;;6.43;74.26
9796;BME280;4937;42.680;27.704;2024-03-06T03:36:48;101470.75;;;6.43;74.08
9796;BME280;4937;42.680;27.704;2024-03-06T03:39:14;101469.97;;;6.43;73.96
9796;BME280;4937;42.680;27.704;2024-03-06T03:41:47;101466.41;;;6.49;73.65
9796;BME280;4937;42.680;27.704;2024-03-06T03:44:14;101470.34;;;6.48;74.18
9796;BME280;4937;42.680;27.704;2024-03-06T03:46:39;101471.13;;;6.52;73.88
9796;BME280;4937;42.680;27.704;2024-03-06T03:49:05;101467.59;;;6.52;74.16
9796;BME280;4937;42.680;27.704;2024-03-06T03:51:30;101471.13;;;6.56;73.92
9796;BME280;4937;42.680;27.704;2024-03-06T03:53:56;101478.56;;;6.62;73.98
9796;BME280;4937;42.680;27.704;2024-03-06T03:56:21;101477.38;;;6.67;73.63
9796;BME280;4937;42.680;27.704;2024-03-06T03:58:47;101482.06;;;6.73;73.30
9796;BME280;4937;42.680;27.704;2024-03-06T04:01:13;101483.66;;;6.78;73.05
9796;BME280;4937;42.680;27.704;2024-03-06T04:03:38;101487.94;;;6.79;73.29
9796;BME280;4937;42.680;27.704;2024-03-06T04:06:04;101486.41;;;6.67;73.21
9796;BME280;4937;42.680;27.704;2024-03-06T04:08:31;101489.13;;;6.67;73.35
9796;BME280;4937;42.680;27.704;2024-03-06T04:10:56;101495.78;;;6.59;73.55
9796;BME280;4937;42.680;27.704;2024-03-06T04:13:22;101495.78;;;6.63;73.28
9796;BME280;4937;42.680;27.704;2024-03-06T04:15:47;101500.47;;;6.62;74.06
9796;BME280;4937;42.680;27.704;2024-03-06T04:18:13;101495.00;;;6.66;73.37
9796;BME280;4937;42.680;27.704;2024-03-06T04:20:38;101501.66;;;6.72;73.38
9796;BME280;4937;42.680;27.704;2024-03-06T04:23:04;101496.56;;;6.70;73.11
9796;BME280;4937;42.680;27.704;2024-03-06T04:25:29;101496.97;;;6.76;72.60
9796;BME280;4937;42.680;27.704;2024-03-06T04:27:55;101493.81;;;6.74;73.22
9796;BME280;4937;42.680;27.704;2024-03-06T04:30:20;101495.38;;;6.71;73.14
9796;BME280;4937;42.680;27.704;2024-03-06T04:32:46;101498.13;;;6.78;72.78
9796;BME280;4937;42.680;27.704;2024-03-06T04:35:12;101498.50;;;6.77;72.64
9796;BME280;4937;42.680;27.704;2024-03-06T04:37:37;101496.97;;;6.76;72.95
9796;BME280;4937;42.680;27.704;2024-03-06T04:40:04;101501.28;;;6.84;72.31
9796;BME280;4937;42.680;27.704;2024-03-06T04:42:36;101498.91;;;6.82;72.43
9796;BME280;4937;42.680;27.704;2024-03-06T04:45:03;101503.59;;;6.85;72.18
9796;BME280;4937;42.680;27.704;2024-03-06T04:47:28;101504.38;;;6.93;72.25
9796;BME280;4937;42.680;27.704;2024-03-06T04:49:54;101506.34;;;6.92;72.13
9796;BME280;4937;42.680;27.704;2024-03-06T04:52:19;101511.81;;;6.96;71.93
9796;BME280;4937;42.680;27.704;2024-03-06T04:54:45;101507.53;;;6.95;71.47
9796;BME280;4937;42.680;27.704;2024-03-06T04:57:10;101519.25;;;7.03;71.64
9796;BME280;4937;42.680;27.704;2024-03-06T04:59:36;101519.25;;;7.06;71.89
9796;BME280;4937;42.680;27.704;2024-03-06T05:02:02;101514.16;;;7.05;71.83
9796;BME280;4937;42.680;27.704;2024-03-06T05:04:29;101518.84;;;7.15;71.94
9796;BME280;4937;42.680;27.704;2024-03-06T05:06:54;101521.19;;;7.16;71.90
9796;BME280;4937;42.680;27.704;2024-03-06T05:09:21;101522.34;;;7.22;71.58
9796;BME280;4937;42.680;27.704;2024-03-06T05:11:46;101530.56;;;7.33;71.25
9796;BME280;4937;42.680;27.704;2024-03-06T05:14:15;101528.97;;;7.42;70.81
9796;BME280;4937;42.680;27.704;2024-03-06T05:16:41;101532.06;;;7.51;70.59
9796;BME280;4937;42.680;27.704;2024-03-06T05:19:07;101526.97;;;7.57;70.41
9796;BME280;4937;42.680;27.704;2024-03-06T05:21:32;101534.41;;;7.63;70.60
9796;BME280;4937;42.680;27.704;2024-03-06T05:23:58;101542.16;;;7.79;69.53
9796;BME280;4937;42.680;27.704;2024-03-06T05:26:24;101545.22;;;7.95;69.78
9796;BME280;4937;42.680;27.704;2024-03-06T05:28:49;101548.31;;;8.11;68.98
9796;BME280;4937;42.680;27.704;2024-03-06T05:31:19;101552.94;;;8.28;68.41
9796;BME280;4937;42.680;27.704;2024-03-06T05:33:47;101547.34;;;8.46;66.89
9796;BME280;4937;42.680;27.704;2024-03-06T05:36:13;101551.94;;;8.63;67.04
9796;BME280;4937;42.680;27.704;2024-03-06T05:38:40;101549.03;;;8.80;65.93
9796;BME280;4937;42.680;27.704;2024-03-06T05:41:05;101553.56;;;9.01;65.44
9796;BME280;4937;42.680;27.704;2024-03-06T05:43:30;101569.13;;;9.22;65.18
9796;BME280;4937;42.680;27.704;2024-03-06T05:45:56;101566.13;;;9.43;63.64
9796;BME280;4937;42.680;27.704;2024-03-06T05:48:22;101568.44;;;9.51;63.65
9796;BME280;4937;42.680;27.704;2024-03-06T05:50:49;101558.84;;;9.63;63.64
9796;BME280;4937;42.680;27.704;2024-03-06T05:53:14;101563.06;;;9.71;62.71
9796;BME280;4937;42.680;27.704;2024-03-06T05:55:40;101568.22;;;9.69;62.61
9796;BME280;4937;42.680;27.704;2024-03-06T05:58:06;101564.66;;;9.68;61.60
9796;BME280;4937;42.680;27.704;2024-03-06T06:00:31;101562.78;;;9.62;61.78
9796;BME280;4937;42.680;27.704;2024-03-06T06:02:57;101560.16;;;9.51;62.26
9796;BME280;4937;42.680;27.704;2024-03-06T06:05:22;101573.50;;;9.53;61.06
9796;BME280;4937;42.680;27.704;2024-03-06T06:07:50;101567.75;;;9.40;62.98
9796;BME280;4937;42.680;27.704;2024-03-06T06:10:15;101573.94;;;9.51;62.05
9796;BME280;4937;42.680;27.704;2024-03-06T06:12:41;101581.28;;;9.61;61.83
9796;BME280;4937;42.680;27.704;2024-03-06T06:15:07;101583.53;;;10.03;60.79
9796;BME280;4937;42.680;27.704;2024-03-06T06:17:33;101585.00;;;10.45;59.63
9796;BME280;4937;42.680;27.704;2024-03-06T06:19:59;101581.59;;;11.34;55.40
9796;BME280;4937;42.680;27.704;2024-03-06T06:22:27;101580.94;;;12.44;52.33
9796;BME280;4937;42.680;27.704;2024-03-06T06:24:52;101592.78;;;12.80;50.39
9796;BME280;4937;42.680;27.704;2024-03-06T06:27:20;101601.19;;;12.57;50.18
9796;BME280;4937;42.680;27.704;2024-03-06T06:29:46;101597.97;;;11.87;51.27
9796;BME280;4937;42.680;27.704;2024-03-06T06:32:11;101605.44;;;11.44;52.54
9796;BME280;4937;42.680;27.704;2024-03-06T06:34:37;101595.91;;;11.25;53.25
9796;BME280;4937;42.680;27.704;2024-03-06T06:37:02;101605.13;;;10.92;53.14
9796;BME280;4937;42.680;27.704;2024-03-06T06:39:28;101615.78;;;11.17;53.29
9796;BME280;4937;42.680;27.704;2024-03-06T06:41:53;101620.13;;;11.60;50.81
9796;BME280;4937;42.680;27.704;2024-03-06T06:44:19;101629.94;;;12.95;49.13
9796;BME280;4937;42.680;27.704;2024-03-06T06:46:44;101628.81;;;14.14;44.81
9796;BME280;4937;42.680;27.704;2024-03-06T06:49:10;101631.31;;;14.37;43.83
9796;BME280;4937;42.680;27.704;2024-03-06T06:51:35;101626.22;;;15.70;40.86
9796;BME280;4937;42.680;27.704;2024-03-06T06:54:01;101627.78;;;17.07;37.28
9796;BME280;4937;42.680;27.704;2024-03-06T06:56:27;101635.66;;;19.04;34.47
9796;BME280;4937;42.680;27.704;2024-03-06T06:58:52;101633.91;;;20.01;31.36
9796;BME280;4937;42.680;27.704;2024-03-06T07:01:18;101638.84;;;19.67;31.56
9796;BME280;4937;42.680;27.704;2024-03-06T07:03:45;101636.75;;;20.30;30.41
9796;BME280;4937;42.680;27.704;2024-03-06T07:06:10;101636.09;;;19.82;29.86
9796;BME280;4937;42.680;27.704;2024-03-06T07:08:36;101643.66;;;19.67;30.74
9796;BME280;4937;42.680;27.704;2024-03-06T07:11:02;101639.22;;;20.71;29.10
9796;BME280;4937;42.680;27.704;2024-03-06T07:13:28;101638.47;;;21.81;27.36
9796;BME280;4937;42.680;27.704;2024-03-06T07:15:53;101648.50;;;22.95;24.82
9796;BME280;4937;42.680;27.704;2024-03-06T07:18:19;101659.47;;;22.93;24.31
9796;BME280;4937;42.680;27.704;2024-03-06T07:20:44;101657.00;;;25.12;22.90
9796;BME280;4937;42.680;27.704;2024-03-06T07:23:10;101657.69;;;26.03;20.85
9796;BME280;4937;42.680;27.704;2024-03-06T07:25:36;101671.03;;;27.38;19.04
9796;BME280;4937;42.680;27.704;2024-03-06T07:28:02;101669.84;;;27.89;18.56
9796;BME280;4937;42.680;27.704;2024-03-06T07:30:27;101670.25;;;28.36;18.64
9796;BME280;4937;42.680;27.704;2024-03-06T07:32:55;101676.72;;;27.99;18.57
9796;BME280;4937;42.680;27.704;2024-03-06T07:35:21;101670.09;;;25.95;19.63
9796;BME280;4937;42.680;27.704;2024-03-06T07:37:47;101677.34;;;26.31;19.41
9796;BME280;4937;42.680;27.704;2024-03-06T07:40:13;101680.06;;;25.33;20.76
9796;BME280;4937;42.680;27.704;2024-03-06T07:42:38;101679.81;;;26.05;19.60
9796;BME280;4937;42.680;27.704;2024-03-06T07:45:05;101672.78;;;27.17;19.00
9796;BME280;4937;42.680;27.704;2024-03-06T07:47:32;101686.50;;;27.37;18.30
9796;BME280;4937;42.680;27.704;2024-03-06T07:49:58;101679.06;;;27.28;18.46
9796;BME280;4937;42.680;27.704;2024-03-06T07:52:23;101686.19;;;27.41;18.33
9796;BME280;4937;42.680;27.704;2024-03-06T07:54:49;101686.34;;;28.28;17.07
9796;BME280;4937;42.680;27.704;2024-03-06T07:57:15;101685.47;;;29.28;15.98
9796;BME280;4937;42.680;27.704;2024-03-06T07:59:40;101692.78;;;30.22;15.14
9796;BME280;4937;42.680;27.704;2024-03-06T08:02:06;101690.44;;;28.96;16.81
9796;BME280;4937;42.680;27.704;2024-03-06T08:04:32;101690.94;;;28.31;17.18
9796;BME280;4937;42.680;27.704;2024-03-06T08:06:58;101690.75;;;27.19;17.37
9796;BME280;4937;42.680;27.704;2024-03-06T08:09:23;101696.28;;;27.36;18.44
9796;BME280;4937;42.680;27.704;2024-03-06T08:11:51;101691.28;;;27.18;18.12
9796;BME280;4937;42.680;27.704;2024-03-06T08:14:19;101689.94;;;27.49;17.27
9796;BME280;4937;42.680;27.704;2024-03-06T08:16:45;101689.66;;;27.28;18.10
9796;BME280;4937;42.680;27.704;2024-03-06T08:19:11;101691.50;;;28.11;17.25
9796;BME280;4937;42.680;27.704;2024-03-06T08:21:37;101694.06;;;27.72;17.01
9796;BME280;4937;42.680;27.704;2024-03-06T08:24:02;101693.22;;;27.77;16.98
9796;BME280;4937;42.680;27.704;2024-03-06T08:26:28;101692.53;;;29.08;15.84
9796;BME280;4937;42.680;27.704;2024-03-06T08:28:53;101696.28;;;29.82;15.04
9796;BME280;4937;42.680;27.704;2024-03-06T08:31:19;101695.94;;;29.59;15.46
9796;BME280;4937;42.680;27.704;2024-03-06T08:33:46;101692.00;;;30.22;14.76
9796;BME280;4937;42.680;27.704;2024-03-06T08:36:12;101700.31;;;29.86;15.19
9796;BME280;4937;42.680;27.704;2024-03-06T08:38:39;101703.47;;;29.83;15.21
9796;BME280;4937;42.680;27.704;2024-03-06T08:41:06;101695.22;;;29.01;15.84
9796;BME280;4937;42.680;27.704;2024-03-06T08:43:32;101697.63;;;27.96;17.38
9796;BME280;4937;42.680;27.704;2024-03-06T08:45:57;101703.59;;;29.38;16.09
9796;BME280;4937;42.680;27.704;2024-03-06T08:48:23;101691.06;;;30.94;14.78
9796;BME280;4937;42.680;27.704;2024-03-06T08:50:48;101702.63;;;30.76;14.35
9796;BME280;4937;42.680;27.704;2024-03-06T08:53:16;101699.19;;;30.02;15.04
9796;BME280;4937;42.680;27.704;2024-03-06T08:55:42;101690.53;;;30.08;15.10
9796;BME280;4937;42.680;27.704;2024-03-06T08:58:07;101694.00;;;29.80;15.44
9796;BME280;4937;42.680;27.704;2024-03-06T09:00:34;101692.06;;;30.09;15.16
9796;BME280;4937;42.680;27.704;2024-03-06T09:02:59;101698.31;;;27.35;17.15
9796;BME280;4937;42.680;27.704;2024-03-06T09:05:25;101691.25;;;28.27;17.48
9796;BME280;4937;42.680;27.704;2024-03-06T09:07:51;101700.09;;;28.24;16.64
9796;BME280;4937;42.680;27.704;2024-03-06T09:10:17;101689.13;;;27.29;17.61
9796;BME280;4937;42.680;27.704;2024-03-06T09:12:44;101691.19;;;27.53;17.53
9796;BME280;4937;42.680;27.704;2024-03-06T09:15:11;101691.44;;;27.55;16.65
9796;BME280;4937;42.680;27.704;2024-03-06T09:17:37;101687.53;;;26.80;17.64
9796;BME280;4937;42.680;27.704;2024-03-06T09:20:04;101689.09;;;27.35;17.57
9796;BME280;4937;42.680;27.704;2024-03-06T09:22:39;101677.06;;;28.46;16.24
9796;BME280;4937;42.680;27.704;2024-03-06T09:25:06;101684.28;;;28.28;15.98
9796;BME280;4937;42.680;27.704;2024-03-06T09:27:31;101681.81;;;28.57;16.72
9796;BME280;4937;42.680;27.704;2024-03-06T09:29:57;101690.69;;;28.66;16.88
9796;BME280;4937;42.680;27.704;2024-03-06T09:32:23;101685.69;;;28.85;15.32
9796;BME280;4937;42.680;27.704;2024-03-06T09:34:48;101687.47;;;28.38;15.74
9796;BME280;4937;42.680;27.704;2024-03-06T09:37:14;101682.06;;;28.72;15.96
9796;BME280;4937;42.680;27.704;2024-03-06T09:39:40;101690.09;;;28.36;15.98
9796;BME280;4937;42.680;27.704;2024-03-06T09:42:06;101680.28;;;27.81;16.70
9796;BME280;4937;42.680;27.704;2024-03-06T09:44:33;101686.63;;;27.87;17.19
9796;BME280;4937;42.680;27.704;2024-03-06T09:47:02;101684.25;;;28.47;16.91
9796;BME280;4937;42.680;27.704;2024-03-06T09:49:29;101690.03;;;29.44;15.90
9796;BME280;4937;42.680;27.704;2024-03-06T09:51:56;101688.81;;;30.80;14.58
9796;BME280;4937;42.680;27.704;2024-03-06T09:54:25;101688.13;;;30.12;14.71
9796;BME280;4937;42.680;27.704;2024-03-06T09:56:52;101690.69;;;30.77;14.80
9796;BME280;4937;42.680;27.704;2024-03-06T09:59:18;101691.44;;;31.19;13.55
9796;BME280;4937;42.680;27.704;2024-03-06T10:01:55;101694.25;;;31.40;13.70
9796;BME280;4937;42.680;27.704;2024-03-06T10:04:26;101694.66;;;30.74;14.14
9796;BME280;4937;42.680;27.704;2024-03-06T10:06:56;101699.53;;;28.76;15.71
9796;BME280;4937;42.680;27.704;2024-03-06T10:09:22;101688.16;;;27.88;16.08
9796;BME280;4937;42.680;27.704;2024-03-06T10:11:48;101686.72;;;26.85;17.91
9796;BME280;4937;42.680;27.704;2024-03-06T10:14:15;101686.38;;;26.24;18.51
9796;BME280;4937;42.680;27.704;2024-03-06T10:16:57;101678.03;;;26.42;18.60
9796;BME280;4937;42.680;27.704;2024-03-06T10:19:24;101690.84;;;26.08;18.32
9796;BME280;4937;42.680;27.704;2024-03-06T10:21:53;101678.00;;;26.07;18.13
9796;BME280;4937;42.680;27.704;2024-03-06T10:24:20;101677.97;;;25.56;18.55
9796;BME280;4937;42.680;27.704;2024-03-06T10:26:46;101676.22;;;25.41;19.58
9796;BME280;4937;42.680;27.704;2024-03-06T10:29:17;101666.66;;;25.61;19.00
9796;BME280;4937;42.680;27.704;2024-03-06T10:31:53;101668.84;;;24.61;20.13
9796;BME280;4937;42.680;27.704;2024-03-06T10:34:23;101669.88;;;24.47;20.60
9796;BME280;4937;42.680;27.704;2024-03-06T10:36:55;101670.13;;;24.66;20.21
9796;BME280;4937;42.680;27.704;2024-03-06T10:39:21;101658.28;;;25.22;19.79
9796;BME280;4937;42.680;27.704;2024-03-06T10:41:51;101658.53;;;25.30;19.40
9796;BME280;4937;42.680;27.704;2024-03-06T10:44:24;101653.44;;;25.06;19.92
9796;BME280;4937;42.680;27.704;2024-03-06T10:47:00;101657.22;;;24.04;20.89
9796;BME280;4937;42.680;27.704;2024-03-06T10:49:27;101661.47;;;23.72;21.21
9796;BME280;4937;42.680;27.704;2024-03-06T10:51:58;101664.88;;;23.92;22.89
9796;BME280;4937;42.680;27.704;2024-03-06T10:54:27;101658.09;;;23.14;23.48
9796;BME280;4937;42.680;27.704;2024-03-06T10:56:53;101644.50;;;21.74;25.50
9796;BME280;4937;42.680;27.704;2024-03-06T10:59:20;101650.31;;;21.10;26.40
9796;BME280;4937;42.680;27.704;2024-03-06T11:01:48;101649.31;;;20.63;26.70
9796;BME280;4937;42.680;27.704;2024-03-06T11:04:14;101652.63;;;20.09;28.31
9796;BME280;4937;42.680;27.704;2024-03-06T11:06:41;101651.97;;;18.63;30.10
9796;BME280;4937;42.680;27.704;2024-03-06T11:09:07;101645.38;;;16.86;33.54
9796;BME280;4937;42.680;27.704;2024-03-06T11:11:47;101655.34;;;15.78;36.23
9796;BME280;4937;42.680;27.704;2024-03-06T11:14:13;101643.09;;;15.29;37.26
9796;BME280;4937;42.680;27.704;2024-03-06T11:17:03;101636.16;;;14.21;39.91
9796;BME280;4937;42.680;27.704;2024-03-06T11:19:30;101635.34;;;13.79;41.32
9796;BME280;4937;42.680;27.704;2024-03-06T11:21:55;101638.03;;;13.82;41.90
9796;BME280;4937;42.680;27.704;2024-03-06T11:24:22;101641.09;;;15.30;39.08
9796;BME280;4937;42.680;27.704;2024-03-06T11:26:56;101635.09;;;15.78;38.19
9796;BME280;4937;42.680;27.704;2024-03-06T11:29:23;101633.00;;;17.90;33.49
9796;BME280;4937;42.680;27.704;2024-03-06T11:32:08;101635.34;;;17.73;33.28
9796;BME280;4937;42.680;27.704;2024-03-06T11:34:36;101621.09;;;17.98;32.53
9796;BME280;4937;42.680;27.704;2024-03-06T11:37:06;101630.91;;;18.53;31.47
9796;BME280;4937;42.680;27.704;2024-03-06T11:39:35;101622.78;;;18.05;32.06
9796;BME280;4937;42.680;27.704;2024-03-06T11:42:02;101612.25;;;17.91;32.74
9796;BME280;4937;42.680;27.704;2024-03-06T11:44:28;101620.09;;;18.19;31.68
9796;BME280;4937;42.680;27.704;2024-03-06T11:46:58;101611.19;;;17.79;32.75
9796;BME280;4937;42.680;27.704;2024-03-06T11:49:27;101605.38;;;18.19;32.58
9796;BME280;4937;42.680;27.704;2024-03-06T11:52:03;101629.00;;;19.72;29.88
9796;BME280;4937;42.680;27.704;2024-03-06T11:54:31;101618.63;;;18.93;30.76
9796;BME280;4937;42.680;27.704;2024-03-06T11:57:01;101619.22;;;17.50;32.64
9796;BME280;4937;42.680;27.704;2024-03-06T11:59:32;101622.72;;;18.23;32.16
9796;BME280;4937;42.680;27.704;2024-03-06T12:02:00;101619.72;;;18.62;30.83
9796;BME280;4937;42.680;27.704;2024-03-06T12:04:34;101630.66;;;19.08;30.38
9796;BME280;4937;42.680;27.704;2024-03-06T12:07:01;101622.00;;;17.86;32.28
9796;BME280;4937;42.680;27.704;2024-03-06T12:09:35;101622.41;;;18.30;31.69
9796;BME280;4937;42.680;27.704;2024-03-06T12:12:01;101639.69;;;18.01;31.98
9796;BME280;4937;42.680;27.704;2024-03-06T12:14:28;101622.94;;;17.92;32.34
9796;BME280;4937;42.680;27.704;2024-03-06T12:16:58;101631.47;;;17.89;32.12
9796;BME280;4937;42.680;27.704;2024-03-06T12:19:28;101631.94;;;16.62;35.32
9796;BME280;4937;42.680;27.704;2024-03-06T12:21:55;101641.09;;;15.55;37.79
9796;BME280;4937;42.680;27.704;2024-03-06T12:24:21;101629.72;;;13.82;42.02
9796;BME280;4937;42.680;27.704;2024-03-06T12:26:46;101641.00;;;12.95;45.03
9796;BME280;4937;42.680;27.704;2024-03-06T12:29:18;101632.78;;;12.59;47.59
9796;BME280;4937;42.680;27.704;2024-03-06T12:31:46;101631.81;;;12.66;48.04
9796;BME280;4937;42.680;27.704;2024-03-06T12:34:15;101636.25;;;12.44;47.42
9796;BME280;4937;42.680;27.704;2024-03-06T12:36:44;101638.91;;;12.31;48.69
9796;BME280;4937;42.680;27.704;2024-03-06T12:39:15;101639.56;;;12.19;48.38
9796;BME280;4937;42.680;27.704;2024-03-06T12:41:43;101637.50;;;11.84;49.96
9796;BME280;4937;42.680;27.704;2024-03-06T12:44:09;101632.59;;;11.72;50.09
9796;BME280;4937;42.680;27.704;2024-03-06T12:46:34;101634.50;;;12.14;49.44
9796;BME280;4937;42.680;27.704;2024-03-06T12:49:00;101636.00;;;12.90;48.09
9796;BME280;4937;42.680;27.704;2024-03-06T12:51:26;101635.38;;;12.98;47.09
9796;BME280;4937;42.680;27.704;2024-03-06T12:53:51;101635.44;;;13.31;46.25
9796;BME280;4937;42.680;27.704;2024-03-06T12:56:18;101636.97;;;13.00;46.96
9796;BME280;4937;42.680;27.704;2024-03-06T12:58:44;101636.78;;;12.74;48.15
9796;BME280;4937;42.680;27.704;2024-03-06T13:01:09;101644.88;;;12.65;48.43
9796;BME280;4937;42.680;27.704;2024-03-06T13:03:36;101646.44;;;12.66;47.79